sensor_id;sensor_type;location;lat;lon;timestamp;pressure;altitude;pressure_sealevel;temperature;humidity
77662;BME280;69666;52.136;5.424;2023-10-08T00:01:19;102396.47;;;18.16;100.00
77662;BME280;69666;52.136;5.424;2023-10-08T00:03:50;102403.63;;;18.17;100.00
77662;BME280;69666;52.136;5.424;2023-10-08T00:06:21;102413.50;;;18.16;100.00
77662;BME280;69666;52.136;5.424;2023-10-08T00:08:51;102418.97;;;18.15;100.00
77662;BME280;69666;52.136;5.424;2023-10-08T00:11:28;102438.69;;;18.15;100.00
77662;BME280;69666;52.136;5.424;2023-10-08T00:13:57;102441.41;;;18.15;100.00
77662;BME280;69666;52.136;5.424;2023-10-08T00:16:29;102449.47;;;18.15;100.00
77662;BME280;69666;52.136;5.424;2023-10-08T00:19:01;102451.25;;;18.16;100.00
77662;BME280;69666;52.136;5.424;2023-10-08T00:21:37;102437.75;;;18.16;100.00
77662;BME280;69666;52.136;5.424;2023-10-08T00:24:07;102428.88;;;18.14;100.00
77662;BME280;69666;52.136;5.424;2023-10-08T00:26:37;102435.06;;;18.16;100.00
77662;BME280;69666;52.136;5.424;2023-10-08T00:29:10;102439.59;;;18.16;100.00
77662;BME280;69666;52.136;5.424;2023-10-08T00:31:49;102430.69;;;18.14;100.00
77662;BME280;69666;52.136;5.424;2023-10-08T00:34:20;102427.97;;;18.14;100.00
77662;BME280;69666;52.136;5.424;2023-10-08T00:36:49;102436.94;;;18.14;100.00
77662;BME280;69666;52.136;5.424;2023-10-08T00:39:19;102416.44;;;18.10;100.00
77662;BME280;69666;52.136;5.424;2023-10-08T00:41:53;102418.97;;;18.15;100.00
77662;BME280;69666;52.136;5.424;2023-10-08T00:44:28;102416.25;;;18.15;100.00
77662;BME280;69666;52.136;5.424;2023-10-08T00:46:59;102413.56;;;18.15;100.00
77662;BME280;69666;52.136;5.424;2023-10-08T00:49:30;102410.88;;;18.15;100.00
77662;BME280;69666;52.136;5.424;2023-10-08T00:52:11;102410.88;;;18.15;100.00
77662;BME280;69666;52.136;5.424;2023-10-08T00:54:43;102404.66;;;18.13;100.00
77662;BME280;69666;52.136;5.424;2023-10-08T00:57:30;102400.16;;;18.13;100.00
77662;BME280;69666;52.136;5.424;2023-10-08T01:00:05;102396.59;;;18.13;100.00
77662;BME280;69666;52.136;5.424;2023-10-08T01:02:40;102396.59;;;18.13;100.00
77662;BME280;69666;52.136;5.424;2023-10-08T01:05:14;102391.19;;;18.13;100.00
77662;BME280;69666;52.136;5.424;2023-10-08T01:07:47;102383.16;;;18.11;100.00
77662;BME280;69666;52.136;5.424;2023-10-08T01:10:19;102399.38;;;18.10;100.00
77662;BME280;69666;52.136;5.424;2023-10-08T01:12:48;102394.06;;;18.08;100.00
77662;BME280;69666;52.136;5.424;2023-10-08T01:15:33;102386.91;;;18.07;100.00
77662;BME280;69666;52.136;5.424;2023-10-08T01:18:05;102386.13;;;18.05;100.00
77662;BME280;69666;52.136;5.424;2023-10-08T01:20:42;102387.94;;;18.05;100.00
77662;BME280;69666;52.136;5.424;2023-10-08T01:23:21;102377.22;;;18.03;100.00
77662;BME280;69666;52.136;5.424;2023-10-08T01:25:54;102389.88;;;18.01;100.00
77662;BME280;69666;52.136;5.424;2023-10-08T01:28:38;102391.69;;;18.01;100.00
77662;BME280;69666;52.136;5.424;2023-10-08T01:31:08;102396.19;;;18.00;100.00
77662;BME280;69666;52.136;5.424;2023-10-08T01:33:43;102395.38;;;17.98;100.00
77662;BME280;69666;52.136;5.424;2023-10-08T01:36:18;102411.59;;;17.97;100.00
77662;BME280;69666;52.136;5.424;2023-10-08T01:38:47;102419.75;;;17.95;100.00
77662;BME280;69666;52.136;5.424;2023-10-08T01:41:21;102419.81;;;17.94;100.00
77662;BME280;69666;52.136;5.424;2023-10-08T01:43:58;102418.94;;;17.93;100.00
77662;BME280;69666;52.136;5.424;2023-10-08T01:46:27;102418.13;;;17.91;100.00
77662;BME280;69666;52.136;5.424;2023-10-08T01:49:00;102423.56;;;17.90;100.00
77662;BME280;69666;52.136;5.424;2023-10-08T01:51:36;102430.81;;;17.87;100.00
77662;BME280;69666;52.136;5.424;2023-10-08T01:54:07;102430.88;;;17.86;100.00
77662;BME280;69666;52.136;5.424;2023-10-08T01:56:42;102445.25;;;17.85;100.00
77662;BME280;69666;52.136;5.424;2023-10-08T01:59:14;102458.94;;;17.80;100.00
77662;BME280;69666;52.136;5.424;2023-10-08T02:01:44;102460.75;;;17.80;100.00
77662;BME280;69666;52.136;5.424;2023-10-08T02:04:14;102467.94;;;17.79;100.00
77662;BME280;69666;52.136;5.424;2023-10-08T02:06:45;102472.56;;;17.76;100.00
77662;BME280;69666;52.136;5.424;2023-10-08T02:09:15;102470.75;;;17.76;100.00
77662;BME280;69666;52.136;5.424;2023-10-08T02:11:46;102475.19;;;17.77;100.00
77662;BME280;69666;52.136;5.424;2023-10-08T02:14:20;102467.16;;;17.76;100.00
77662;BME280;69666;52.136;5.424;2023-10-08T02:16:51;102467.16;;;17.76;100.00
77662;BME280;69666;52.136;5.424;2023-10-08T02:19:24;102483.31;;;17.76;100.00
77662;BME280;69666;52.136;5.424;2023-10-08T02:21:57;102476.19;;;17.75;100.00
77662;BME280;69666;52.136;5.424;2023-10-08T02:24:27;102476.28;;;17.73;100.00
77662;BME280;69666;52.136;5.424;2023-10-08T02:26:58;102456.53;;;17.73;100.00
77662;BME280;69666;52.136;5.424;2023-10-08T02:29:30;102430.50;;;17.73;100.00
77662;BME280;69666;52.136;5.424;2023-10-08T02:31:59;102476.19;;;17.75;100.00
77662;BME280;69666;52.136;5.424;2023-10-08T02:34:29;102477.94;;;17.76;100.00
77662;BME280;69666;52.136;5.424;2023-10-08T02:36:58;102493.28;;;17.74;100.00
77662;BME280;69666;52.136;5.424;2023-10-08T02:39:27;102479.75;;;17.75;100.00
77662;BME280;69666;52.136;5.424;2023-10-08T02:41:58;102461.72;;;17.77;100.00
77662;BME280;69666;52.136;5.424;2023-10-08T02:44:28;102451.88;;;17.76;100.00
77662;BME280;69666;52.136;5.424;2023-10-08T02:46:59;102434.84;;;17.76;100.00
77662;BME280;69666;52.136;5.424;2023-10-08T02:49:29;102438.38;;;17.78;100.00
77662;BME280;69666;52.136;5.424;2023-10-08T02:51:59;102455.47;;;17.77;100.00
77662;BME280;69666;52.136;5.424;2023-10-08T02:54:32;102502.19;;;17.76;100.00
77662;BME280;69666;52.136;5.424;2023-10-08T02:57:05;102464.47;;;17.76;100.00
77662;BME280;69666;52.136;5.424;2023-10-08T02:59:42;102479.69;;;17.77;100.00
77662;BME280;69666;52.136;5.424;2023-10-08T03:02:14;102479.69;;;17.77;100.00
77662;BME280;69666;52.136;5.424;2023-10-08T03:04:50;102460.84;;;17.77;100.00
77662;BME280;69666;52.136;5.424;2023-10-08T03:07:21;102461.72;;;17.77;100.00
77662;BME280;69666;52.136;5.424;2023-10-08T03:09:52;102496.69;;;17.79;100.00
77662;BME280;69666;52.136;5.424;2023-10-08T03:12:40;102474.31;;;17.77;100.00
77662;BME280;69666;52.136;5.424;2023-10-08T03:15:11;102480.53;;;17.79;100.00
77662;BME280;69666;52.136;5.424;2023-10-08T03:17:48;102477.88;;;17.77;100.00
77662;BME280;69666;52.136;5.424;2023-10-08T03:20:19;102468.97;;;17.75;100.00
77662;BME280;69666;52.136;5.424;2023-10-08T03:23:09;102478.88;;;17.75;100.00
77662;BME280;69666;52.136;5.424;2023-10-08T03:25:56;102476.28;;;17.73;100.00
77662;BME280;69666;52.136;5.424;2023-10-08T03:28:30;102460.16;;;17.72;100.00
77662;BME280;69666;52.136;5.424;2023-10-08T03:31:03;102447.63;;;17.71;100.00
77662;BME280;69666;52.136;5.424;2023-10-08T03:33:36;102458.50;;;17.68;100.00
77662;BME280;69666;52.136;5.424;2023-10-08T03:36:07;102472.03;;;17.66;100.00
77662;BME280;69666;52.136;5.424;2023-10-08T03:38:42;102498.06;;;17.66;100.00
77662;BME280;69666;52.136;5.424;2023-10-08T03:41:25;102532.19;;;17.65;100.00
77662;BME280;69666;52.136;5.424;2023-10-08T03:43:58;102518.78;;;17.64;100.00
77662;BME280;69666;52.136;5.424;2023-10-08T03:46:34;102516.91;;;17.66;100.00
77662;BME280;69666;52.136;5.424;2023-10-08T03:49:10;102512.47;;;17.65;100.00
77662;BME280;69666;52.136;5.424;2023-10-08T03:51:53;102507.03;;;17.66;100.00
77662;BME280;69666;52.136;5.424;2023-10-08T03:54:25;102526.81;;;17.65;100.00
77662;BME280;69666;52.136;5.424;2023-10-08T03:57:03;102519.56;;;17.67;100.00
77662;BME280;69666;52.136;5.424;2023-10-08T03:59:39;102544.72;;;17.66;100.00
77662;BME280;69666;52.136;5.424;2023-10-08T04:02:09;102539.53;;;17.60;100.00
77662;BME280;69666;52.136;5.424;2023-10-08T04:04:44;102543.31;;;17.55;100.00
77662;BME280;69666;52.136;5.424;2023-10-08T04:07:23;102554.31;;;17.48;100.00
77662;BME280;69666;52.136;5.424;2023-10-08T04:10:01;102574.38;;;17.40;100.00
77662;BME280;69666;52.136;5.424;2023-10-08T04:12:37;102570.94;;;17.35;100.00
77662;BME280;69666;52.136;5.424;2023-10-08T04:15:12;102573.84;;;17.29;100.00
77662;BME280;69666;52.136;5.424;2023-10-08T04:17:45;102583.19;;;17.19;100.00
77662;BME280;69666;52.136;5.424;2023-10-08T04:20:19;102587.91;;;17.10;100.00
77662;BME280;69666;52.136;5.424;2023-10-08T04:23:09;102589.09;;;17.02;100.00
77662;BME280;69666;52.136;5.424;2023-10-08T04:25:49;102578.59;;;16.94;100.00
77662;BME280;69666;52.136;5.424;2023-10-08T04:28:23;102579.66;;;16.89;100.00
77662;BME280;69666;52.136;5.424;2023-10-08T04:30:56;102578.06;;;16.83;100.00
77662;BME280;69666;52.136;5.424;2023-10-08T04:33:31;102567.47;;;16.77;100.00
77662;BME280;69666;52.136;5.424;2023-10-08T04:36:02;102562.31;;;16.71;100.00
77662;BME280;69666;52.136;5.424;2023-10-08T04:38:35;102560.75;;;16.64;100.00
77662;BME280;69666;52.136;5.424;2023-10-08T04:41:10;102560.03;;;16.57;100.00
77662;BME280;69666;52.136;5.424;2023-10-08T04:43:39;102552.88;;;16.56;100.00
77662;BME280;69666;52.136;5.424;2023-10-08T04:46:10;102536.88;;;16.53;100.00
77662;BME280;69666;52.136;5.424;2023-10-08T04:48:59;102535.13;;;16.52;100.00
77662;BME280;69666;52.136;5.424;2023-10-08T04:51:33;102542.34;;;16.50;100.00
77662;BME280;69666;52.136;5.424;2023-10-08T04:54:11;102576.41;;;16.50;100.00
77662;BME280;69666;52.136;5.424;2023-10-08T04:56:50;102584.50;;;16.48;100.00
77662;BME280;69666;52.136;5.424;2023-10-08T04:59:21;102594.31;;;16.49;100.00
77662;BME280;69666;52.136;5.424;2023-10-08T05:01:50;102595.25;;;16.48;100.00
77662;BME280;69666;52.136;5.424;2023-10-08T05:04:42;102591.69;;;16.48;100.00
77662;BME280;69666;52.136;5.424;2023-10-08T05:07:23;102598.84;;;16.47;100.00
77662;BME280;69666;52.136;5.424;2023-10-08T05:10:28;102600.66;;;16.47;100.00
77662;BME280;69666;52.136;5.424;2023-10-08T05:12:57;102585.47;;;16.46;100.00
77662;BME280;69666;52.136;5.424;2023-10-08T05:15:32;102581.00;;;16.44;100.00
77662;BME280;69666;52.136;5.424;2023-10-08T05:18:09;102597.13;;;16.44;100.00
77662;BME280;69666;52.136;5.424;2023-10-08T05:20:51;102599.06;;;16.41;100.00
77662;BME280;69666;52.136;5.424;2023-10-08T05:23:27;102603.63;;;16.37;100.00
77662;BME280;69666;52.136;5.424;2023-10-08T05:25:58;102605.53;;;16.34;100.00
77662;BME280;69666;52.136;5.424;2023-10-08T05:28:50;102628.06;;;16.30;100.00
77662;BME280;69666;52.136;5.424;2023-10-08T05:31:45;102629.13;;;16.23;100.00
77662;BME280;69666;52.136;5.424;2023-10-08T05:34:14;102641.88;;;16.16;100.00
77662;BME280;69666;52.136;5.424;2023-10-08T05:36:52;102628.56;;;16.12;100.00
77662;BME280;69666;52.136;5.424;2023-10-08T05:39:27;102631.44;;;16.05;100.00
77662;BME280;69666;52.136;5.424;2023-10-08T05:42:22;102650.59;;;15.92;100.00
77662;BME280;69666;52.136;5.424;2023-10-08T05:44:58;102648.97;;;15.86;100.00
77662;BME280;69666;52.136;5.424;2023-10-08T05:47:49;102656.41;;;15.77;100.00
77662;BME280;69666;52.136;5.424;2023-10-08T05:50:37;102651.28;;;15.67;100.00
77662;BME280;69666;52.136;5.424;2023-10-08T05:53:07;102701.56;;;15.59;100.00
77662;BME280;69666;52.136;5.424;2023-10-08T05:56:09;102692.84;;;15.48;100.00
77662;BME280;69666;52.136;5.424;2023-10-08T05:58:57;102663.50;;;15.42;100.00
77662;BME280;69666;52.136;5.424;2023-10-08T06:01:42;102656.44;;;15.38;100.00
77662;BME280;69666;52.136;5.424;2023-10-08T06:04:14;102652.91;;;15.36;100.00
77662;BME280;69666;52.136;5.424;2023-10-08T06:07:09;102640.63;;;15.27;100.00
77662;BME280;69666;52.136;5.424;2023-10-08T06:09:44;102643.50;;;15.20;100.00
77662;BME280;69666;52.136;5.424;2023-10-08T06:12:29;102659.66;;;15.17;100.00
77662;BME280;69666;52.136;5.424;2023-10-08T06:14:58;102671.38;;;15.13;100.00
77662;BME280;69666;52.136;5.424;2023-10-08T06:17:36;102689.41;;;15.06;100.00
77662;BME280;69666;52.136;5.424;2023-10-08T06:20:26;102700.22;;;15.03;100.00
77662;BME280;69666;52.136;5.424;2023-10-08T06:22:58;102701.19;;;14.99;100.00
77662;BME280;69666;52.136;5.424;2023-10-08T06:25:31;102697.69;;;14.95;100.00
77662;BME280;69666;52.136;5.424;2023-10-08T06:28:00;102691.44;;;14.95;100.00
77662;BME280;69666;52.136;5.424;2023-10-08T06:30:31;102704.97;;;14.90;100.00
77662;BME280;69666;52.136;5.424;2023-10-08T06:33:03;102712.19;;;14.87;100.00
77662;BME280;69666;52.136;5.424;2023-10-08T06:35:33;102708.63;;;14.86;100.00
77662;BME280;69666;52.136;5.424;2023-10-08T06:38:03;102705.03;;;14.87;100.00
77662;BME280;69666;52.136;5.424;2023-10-08T06:40:36;102710.41;;;14.86;100.00
77662;BME280;69666;52.136;5.424;2023-10-08T06:43:06;102710.44;;;14.84;100.00
77662;BME280;69666;52.136;5.424;2023-10-08T06:45:52;102720.41;;;14.79;100.00
77662;BME280;69666;52.136;5.424;2023-10-08T06:48:26;102726.56;;;14.83;100.00
77662;BME280;69666;52.136;5.424;2023-10-08T06:50:57;102722.97;;;14.82;100.00
77662;BME280;69666;52.136;5.424;2023-10-08T06:53:35;102714.91;;;14.84;100.00
77662;BME280;69666;52.136;5.424;2023-10-08T06:56:06;102714.88;;;14.85;100.00
77662;BME280;69666;52.136;5.424;2023-10-08T06:58:39;102725.59;;;14.85;100.00
77662;BME280;69666;52.136;5.424;2023-10-08T07:01:18;102728.28;;;14.85;100.00
77662;BME280;69666;52.136;5.424;2023-10-08T07:03:53;102727.41;;;14.85;100.00
77662;BME280;69666;52.136;5.424;2023-10-08T07:06:32;102730.13;;;14.83;100.00
77662;BME280;69666;52.136;5.424;2023-10-08T07:09:07;102732.75;;;14.85;100.00
77662;BME280;69666;52.136;5.424;2023-10-08T07:11:58;102739.00;;;14.85;100.00
77662;BME280;69666;52.136;5.424;2023-10-08T07:14:33;102743.50;;;14.85;100.00
77662;BME280;69666;52.136;5.424;2023-10-08T07:17:03;102732.72;;;14.88;100.00
77662;BME280;69666;52.136;5.424;2023-10-08T07:19:36;102740.69;;;14.91;100.00
77662;BME280;69666;52.136;5.424;2023-10-08T07:22:09;102741.53;;;14.93;100.00
77662;BME280;69666;52.136;5.424;2023-10-08T07:24:51;102756.66;;;14.95;100.00
77662;BME280;69666;52.136;5.424;2023-10-08T07:27:21;102744.13;;;14.97;100.00
77662;BME280;69666;52.136;5.424;2023-10-08T07:29:58;102743.19;;;14.98;100.00
77662;BME280;69666;52.136;5.424;2023-10-08T07:32:31;102753.00;;;15.01;100.00
77662;BME280;69666;52.136;5.424;2023-10-08T07:35:02;102745.72;;;15.05;100.00
77662;BME280;69666;52.136;5.424;2023-10-08T07:37:53;102737.63;;;15.08;100.00
77662;BME280;69666;52.136;5.424;2023-10-08T07:40:22;102741.13;;;15.13;100.00
77662;BME280;69666;52.136;5.424;2023-10-08T07:42:57;102744.59;;;15.16;100.00
77662;BME280;69666;52.136;5.424;2023-10-08T07:45:36;102739.16;;;15.19;100.00
77662;BME280;69666;52.136;5.424;2023-10-08T07:48:06;102749.84;;;15.22;100.00
77662;BME280;69666;52.136;5.424;2023-10-08T07:50:43;102757.88;;;15.22;100.00
77662;BME280;69666;52.136;5.424;2023-10-08T07:53:13;102744.38;;;15.25;100.00
77662;BME280;69666;52.136;5.424;2023-10-08T07:55:46;102762.22;;;15.26;100.00
77662;BME280;69666;52.136;5.424;2023-10-08T07:58:16;102782.78;;;15.27;100.00
77662;BME280;69666;52.136;5.424;2023-10-08T08:00:46;102775.63;;;15.28;100.00
77662;BME280;69666;52.136;5.424;2023-10-08T08:03:22;102781.84;;;15.30;100.00
77662;BME280;69666;52.136;5.424;2023-10-08T08:05:52;102778.06;;;15.39;100.00
77662;BME280;69666;52.136;5.424;2023-10-08T08:08:22;102784.13;;;15.47;100.00
77662;BME280;69666;52.136;5.424;2023-10-08T08:10:55;102786.69;;;15.54;100.00
77662;BME280;69666;52.136;5.424;2023-10-08T08:13:31;102792.03;;;15.56;100.00
77662;BME280;69666;52.136;5.424;2023-10-08T08:16:02;102791.09;;;15.57;100.00
77662;BME280;69666;52.136;5.424;2023-10-08T08:18:45;102795.50;;;15.59;100.00
77662;BME280;69666;52.136;5.424;2023-10-08T08:21:17;102801.72;;;15.61;100.00
77662;BME280;69666;52.136;5.424;2023-10-08T08:23:47;102803.41;;;15.65;100.00
77662;BME280;69666;52.136;5.424;2023-10-08T08:26:24;102801.59;;;15.67;100.00
77662;BME280;69666;52.136;5.424;2023-10-08T08:29:07;102804.19;;;15.70;100.00
77662;BME280;69666;52.136;5.424;2023-10-08T08:31:37;102805.97;;;15.70;100.00
77662;BME280;69666;52.136;5.424;2023-10-08T08:34:06;102818.47;;;15.71;100.00
77662;BME280;69666;52.136;5.424;2023-10-08T08:36:45;102830.97;;;15.72;100.00
77662;BME280;69666;52.136;5.424;2023-10-08T08:39:17;102832.84;;;15.68;100.00
77662;BME280;69666;52.136;5.424;2023-10-08T08:42:01;102838.19;;;15.70;100.00
77662;BME280;69666;52.136;5.424;2023-10-08T08:44:39;102845.44;;;15.66;100.00
77662;BME280;69666;52.136;5.424;2023-10-08T08:47:21;102847.25;;;15.66;100.00
77662;BME280;69666;52.136;5.424;2023-10-08T08:49:55;102839.16;;;15.67;100.00
77662;BME280;69666;52.136;5.424;2023-10-08T08:52:28;102833.72;;;15.69;100.00
77662;BME280;69666;52.136;5.424;2023-10-08T08:54:57;102830.13;;;15.70;100.00
77662;BME280;69666;52.136;5.424;2023-10-08T08:57:28;102823.78;;;15.74;100.00
77662;BME280;69666;52.136;5.424;2023-10-08T08:59:58;102823.63;;;15.80;100.00
77662;BME280;69666;52.136;5.424;2023-10-08T09:02:28;102810.94;;;15.88;100.00
77662;BME280;69666;52.136;5.424;2023-10-08T09:05:00;102811.66;;;15.95;100.00
77662;BME280;69666;52.136;5.424;2023-10-08T09:10:26;102816.81;;;16.02;100.00
77662;BME280;69666;52.136;5.424;2023-10-08T09:12:58;102810.56;;;16.02;100.00
77662;BME280;69666;52.136;5.424;2023-10-08T09:15:28;102807.84;;;16.03;100.00
77662;BME280;69666;52.136;5.424;2023-10-08T09:17:58;102810.44;;;16.08;100.00
77662;BME280;69666;52.136;5.424;2023-10-08T09:20:38;102806.69;;;16.14;100.00
77662;BME280;69666;52.136;5.424;2023-10-08T09:23:14;102799.34;;;16.22;100.00
77662;BME280;69666;52.136;5.424;2023-10-08T09:25:46;102803.66;;;16.27;100.00
77662;BME280;69666;52.136;5.424;2023-10-08T09:28:19;102807.00;;;16.35;100.00
77662;BME280;69666;52.136;5.424;2023-10-08T09:30:49;102806.94;;;16.38;100.00
77662;BME280;69666;52.136;5.424;2023-10-08T09:33:20;102816.72;;;16.41;100.00
77662;BME280;69666;52.136;5.424;2023-10-08T09:35:51;102812.13;;;16.44;100.00
77662;BME280;69666;52.136;5.424;2023-10-08T09:38:25;102812.94;;;16.48;100.00
77662;BME280;69666;52.136;5.424;2023-10-08T09:40:58;102824.50;;;16.52;100.00
77662;BME280;69666;52.136;5.424;2023-10-08T09:43:31;102833.47;;;16.52;100.00
77662;BME280;69666;52.136;5.424;2023-10-08T09:46:19;102828.03;;;16.54;100.00
77662;BME280;69666;52.136;5.424;2023-10-08T09:48:53;102818.22;;;16.53;100.00
77662;BME280;69666;52.136;5.424;2023-10-08T09:51:30;102829.72;;;16.58;100.00
77662;BME280;69666;52.136;5.424;2023-10-08T09:54:25;102818.00;;;16.60;100.00
77662;BME280;69666;52.136;5.424;2023-10-08T09:57:03;102824.31;;;16.58;100.00
77662;BME280;69666;52.136;5.424;2023-10-08T09:59:35;102819.81;;;16.60;100.00
77662;BME280;69666;52.136;5.424;2023-10-08T10:02:07;102820.66;;;16.63;100.00
77662;BME280;69666;52.136;5.424;2023-10-08T10:04:44;102811.59;;;16.66;100.00
77662;BME280;69666;52.136;5.424;2023-10-08T10:07:15;102815.22;;;16.65;100.00
77662;BME280;69666;52.136;5.424;2023-10-08T10:09:46;102802.56;;;16.68;100.00
77662;BME280;69666;52.136;5.424;2023-10-08T10:12:20;102804.31;;;16.69;100.00
77662;BME280;69666;52.136;5.424;2023-10-08T10:14:55;102798.84;;;16.74;100.00
77662;BME280;69666;52.136;5.424;2023-10-08T10:17:28;102811.25;;;16.78;100.00
77662;BME280;69666;52.136;5.424;2023-10-08T10:20:10;102816.47;;;16.84;100.00
77662;BME280;69666;52.136;5.424;2023-10-08T10:22:44;102814.63;;;16.86;100.00
77662;BME280;69666;52.136;5.424;2023-10-08T10:25:17;102812.84;;;16.85;100.00
77662;BME280;69666;52.136;5.424;2023-10-08T10:30:56;102821.66;;;16.90;100.00
77662;BME280;69666;52.136;5.424;2023-10-08T10:33:32;102821.63;;;16.92;100.00
77662;BME280;69666;52.136;5.424;2023-10-08T10:36:02;102810.78;;;16.95;100.00
77662;BME280;69666;52.136;5.424;2023-10-08T10:38:33;102814.25;;;16.98;100.00
77662;BME280;69666;52.136;5.424;2023-10-08T10:41:04;102822.16;;;17.04;100.00
77662;BME280;69666;52.136;5.424;2023-10-08T10:43:37;102821.19;;;17.07;100.00
77662;BME280;69666;52.136;5.424;2023-10-08T10:46:08;102830.91;;;17.11;100.00
77662;BME280;69666;52.136;5.424;2023-10-08T10:48:59;102830.19;;;17.06;100.00
77662;BME280;69666;52.136;5.424;2023-10-08T10:51:54;102823.84;;;17.08;100.00
77662;BME280;69666;52.136;5.424;2023-10-08T10:54:27;102824.66;;;17.10;100.00
77662;BME280;69666;52.136;5.424;2023-10-08T10:57:06;102816.47;;;17.15;100.00
77662;BME280;69666;52.136;5.424;2023-10-08T10:59:46;102810.19;;;17.14;100.00
77662;BME280;69666;52.136;5.424;2023-10-08T11:02:21;102802.94;;;17.18;100.00
77662;BME280;69666;52.136;5.424;2023-10-08T11:04:59;102801.94;;;17.21;100.00
77662;BME280;69666;52.136;5.424;2023-10-08T11:07:36;102794.56;;;17.27;100.00
77662;BME280;69666;52.136;5.424;2023-10-08T11:10:10;102799.78;;;17.32;100.00
77662;BME280;69666;52.136;5.424;2023-10-08T11:12:43;102805.09;;;17.35;100.00
77662;BME280;69666;52.136;5.424;2023-10-08T11:15:15;102809.56;;;17.36;100.00
77662;BME280;69666;52.136;5.424;2023-10-08T11:17:45;102810.56;;;17.32;100.00
77662;BME280;69666;52.136;5.424;2023-10-08T11:20:26;102811.56;;;17.29;100.00
77662;BME280;69666;52.136;5.424;2023-10-08T11:22:55;102807.06;;;17.30;100.00
77662;BME280;69666;52.136;5.424;2023-10-08T11:25:55;102803.28;;;17.35;100.00
77662;BME280;69666;52.136;5.424;2023-10-08T11:28:38;102806.84;;;17.36;100.00
77662;BME280;69666;52.136;5.424;2023-10-08T11:31:14;102796.94;;;17.38;100.00
77662;BME280;69666;52.136;5.424;2023-10-08T11:33:48;102792.56;;;17.34;100.00
77662;BME280;69666;52.136;5.424;2023-10-08T11:36:24;102797.00;;;17.35;100.00
77662;BME280;69666;52.136;5.424;2023-10-08T11:38:59;102793.69;;;17.27;100.00
77662;BME280;69666;52.136;5.424;2023-10-08T11:41:37;102799.16;;;17.24;100.00
77662;BME280;69666;52.136;5.424;2023-10-08T11:44:18;102794.75;;;17.21;100.00
77662;BME280;69666;52.136;5.424;2023-10-08T11:46:47;102792.13;;;17.20;100.00
77662;BME280;69666;52.136;5.424;2023-10-08T11:49:19;102786.78;;;17.18;100.00
77662;BME280;69666;52.136;5.424;2023-10-08T11:51:53;102792.03;;;17.21;100.00
77662;BME280;69666;52.136;5.424;2023-10-08T11:54:23;102781.25;;;17.23;100.00
77662;BME280;69666;52.136;5.424;2023-10-08T11:56:53;102783.84;;;17.26;100.00
77662;BME280;69666;52.136;5.424;2023-10-08T11:59:24;102780.28;;;17.25;100.00
77662;BME280;69666;52.136;5.424;2023-10-08T12:01:53;102782.00;;;17.28;100.00
77662;BME280;69666;52.136;5.424;2023-10-08T12:04:24;102780.16;;;17.30;100.00
77662;BME280;69666;52.136;5.424;2023-10-08T12:06:58;102770.16;;;17.33;100.00
77662;BME280;69666;52.136;5.424;2023-10-08T12:09:30;102757.56;;;17.34;100.00
77662;BME280;69666;52.136;5.424;2023-10-08T12:12:05;102750.34;;;17.36;100.00
77662;BME280;69666;52.136;5.424;2023-10-08T12:14:37;102739.47;;;17.39;100.00
77662;BME280;69666;52.136;5.424;2023-10-08T12:17:06;102732.13;;;17.44;100.00
77662;BME280;69666;52.136;5.424;2023-10-08T12:19:39;102725.75;;;17.46;100.00
77662;BME280;69666;52.136;5.424;2023-10-08T12:22:11;102722.09;;;17.49;100.00
77662;BME280;69666;52.136;5.424;2023-10-08T12:24:46;102719.44;;;17.47;100.00
77662;BME280;69666;52.136;5.424;2023-10-08T12:27:16;102720.34;;;17.48;100.00
77662;BME280;69666;52.136;5.424;2023-10-08T12:29:45;102719.50;;;17.46;100.00
77662;BME280;69666;52.136;5.424;2023-10-08T12:32:15;102714.34;;;17.40;100.00
77662;BME280;69666;52.136;5.424;2023-10-08T12:34:46;102715.25;;;17.39;100.00
77662;BME280;69666;52.136;5.424;2023-10-08T12:37:16;102704.38;;;17.42;100.00
77662;BME280;69666;52.136;5.424;2023-10-08T12:39:46;102714.94;;;17.48;100.00
77662;BME280;69666;52.136;5.424;2023-10-08T12:42:39;102705.03;;;17.50;100.00
77662;BME280;69666;52.136;5.424;2023-10-08T12:45:12;102695.19;;;17.49;100.00
77662;BME280;69666;52.136;5.424;2023-10-08T12:47:41;102698.81;;;17.48;100.00
77662;BME280;69666;52.136;5.424;2023-10-08T12:50:11;102703.25;;;17.49;100.00
77662;BME280;69666;52.136;5.424;2023-10-08T12:52:44;102690.63;;;17.51;100.00
77662;BME280;69666;52.136;5.424;2023-10-08T12:55:21;102686.13;;;17.51;100.00
77662;BME280;69666;52.136;5.424;2023-10-08T12:57:52;102688.97;;;17.47;100.00
77662;BME280;69666;52.136;5.424;2023-10-08T13:00:23;102688.13;;;17.45;100.00
77662;BME280;69666;52.136;5.424;2023-10-08T13:02:53;102683.63;;;17.45;100.00
77662;BME280;69666;52.136;5.424;2023-10-08T13:05:23;102685.53;;;17.42;100.00
77662;BME280;69666;52.136;5.424;2023-10-08T13:07:56;102692.72;;;17.41;100.00
77662;BME280;69666;52.136;5.424;2023-10-08T13:10:31;102691.75;;;17.44;100.00
77662;BME280;69666;52.136;5.424;2023-10-08T13:13:00;102681.03;;;17.42;100.00
77662;BME280;69666;52.136;5.424;2023-10-08T13:15:29;102691.75;;;17.44;100.00
77662;BME280;69666;52.136;5.424;2023-10-08T13:18:03;102688.09;;;17.46;100.00
77662;BME280;69666;52.136;5.424;2023-10-08T13:20:32;102687.19;;;17.46;100.00
77662;BME280;69666;52.136;5.424;2023-10-08T13:23:02;102680.94;;;17.45;100.00
77662;BME280;69666;52.136;5.424;2023-10-08T13:25:34;102680.88;;;17.47;100.00